Latest Weather Observations for Oakey

IDQ60801

Issued at 6:02 pm EST Tuesday 30 June 2015 (issued every 30 minutes, with the page automatically refreshed every 10 minutes)

About weather observations | Map of weather stations | Latest weather observations for QLD | Other Formats
Station Details ID: 041359 Name: OAKEY AERO Lat: -27.40 Lon: 151.74 Height: 405.69 m
Data from the previous 72 hours. | See also: Recent months at Oakey
Date/Time
EST
Temp
°C
App
Temp
°C
Dew
Point
Rel
Hum
%
Delta-T
°C
Wind Press
QNH
hPa
Press
MSL
hPa
Rain
since 9 am
mm
Dir
 
Spd
km/h
Gust
km/h
Spd
kts
Gust
kts
30/06:00pm 13.3 10.7 9.5 78 2.0 E 13 11 7 6 1025.1 1025.1 -
30/05:30pm 14.6 12.2 10.2 75 2.3 ENE 13 15 7 8 1025.0 1025.0 0.0
30/05:00pm 15.9 13.7 10.7 71 2.8 E 13 17 7 9 1024.7 1024.7 0.0
30/04:30pm 17.4 14.8 10.8 65 3.6 E 15 20 8 11 1024.6 1024.6 0.0
30/04:00pm 18.7 15.4 11.0 61 4.2 ESE 19 20 10 11 1024.6 1024.6 0.0
30/03:30pm 18.6 15.1 10.2 58 4.6 ESE 19 22 10 12 1024.8 1024.8 0.0
30/03:00pm 19.4 16.5 10.9 58 4.7 E 17 24 9 13 1024.7 1024.7 0.0
30/02:30pm 19.5 17.2 10.5 56 5.0 E 13 19 7 10 1024.7 1024.7 0.0
30/02:00pm 19.7 16.9 9.9 53 5.3 E 15 20 8 11 1024.8 1024.8 0.0
30/01:30pm 20.0 17.5 11.0 56 5.0 ESE 15 22 8 12 1024.8 1024.8 0.0
30/01:00pm 19.9 16.8 10.3 54 5.3 ESE 17 24 9 13 1025.2 1025.2 0.0
30/12:30pm 19.7 16.4 9.6 52 5.5 E 17 30 9 16 1025.5 1025.5 0.0
30/12:00pm 20.1 16.5 9.9 52 5.5 ENE 19 28 10 15 1026.3 1026.3 0.0
30/11:30am 19.7 15.8 9.6 52 5.5 ENE 20 30 11 16 1026.6 1026.6 0.0
30/11:00am 19.0 14.3 9.2 53 5.2 ENE 24 30 13 16 1027.1 1027.1 0.0
30/10:30am 18.5 14.5 10.3 59 4.5 ENE 22 33 12 18 1027.6 1027.6 0.0
30/10:00am 17.3 14.3 12.4 73 2.7 ENE 20 28 11 15 1028.0 1028.1 0.0
30/09:30am 16.0 13.2 12.6 80 1.9 ENE 19 22 10 12 1028.1 1028.2 0.0
30/09:00am 14.6 12.3 13.1 91 0.8 ENE 17 19 9 10 1028.6 1028.6 1.0
30/08:30am 13.1 11.7 12.2 94 0.5 E 11 13 6 7 1028.9 1028.9 1.0
30/08:00am 12.5 11.5 12.2 98 0.2 ESE 9 11 5 6 1028.7 1028.7 1.0
30/07:30am 11.8 10.6 11.6 99 0.1 ENE 9 9 5 5 1028.3 1028.4 1.0
30/07:00am 10.6 10.0 10.3 98 0.2 SSE 4 7 2 4 1028.2 1028.3 1.0
30/06:35am 10.5 10.6 10.0 97 0.3 CALM 0 0 0 0 1028.3 1028.4 1.0
30/06:30am 10.4 10.4 9.9 97 0.3 CALM 0 0 0 0 1028.2 1028.3 1.0
30/06:05am 10.3 9.0 9.8 97 0.3 ENE 7 9 4 5 1027.8 1027.9 1.0
30/06:00am 10.6 9.0 10.1 97 0.3 ENE 9 9 5 5 1027.7 1027.7 1.0
30/05:30am 10.4 9.0 9.6 95 0.4 ESE 7 9 4 5 1027.6 1027.6 0.8
30/05:00am 11.3 10.2 10.5 95 0.4 ESE 7 7 4 4 1027.5 1027.5 0.8
30/04:30am 11.4 8.0 10.6 95 0.4 SE 19 19 10 10 1027.1 1027.1 0.8
30/04:00am 11.7 8.7 10.8 94 0.5 SE 17 17 9 9 1027.6 1027.6 0.8
30/03:30am 12.9 12.3 11.8 93 0.6 ESE 6 7 3 4 1028.2 1028.3 0.8
30/03:16am 13.0 11.9 12.1 94 0.5 ESE 9 11 5 6 1028.4 1028.5 0.8
30/03:00am 13.2 11.8 12.1 93 0.6 ESE 11 13 6 7 1028.4 1028.5 0.8
30/02:30am 13.3 12.3 12.2 93 0.6 ESE 9 13 5 7 1028.7 1028.7 0.8
30/02:12am 13.3 12.4 12.5 95 0.4 E 9 11 5 6 1028.7 1028.7 0.8
30/02:00am 13.3 12.0 12.5 95 0.4 E 11 15 6 8 1028.7 1028.7 0.8
30/01:44am 13.4 12.1 12.5 94 0.5 E 11 15 6 8 1028.7 1028.7 0.8
30/01:30am 13.4 13.1 12.6 95 0.4 E 6 9 3 5 1028.9 1028.9 0.8
30/01:00am 13.4 13.1 12.6 95 0.4 ESE 6 7 3 4 1029.2 1029.2 0.8
30/12:30am 13.5 13.6 12.6 94 0.5 ENE 4 6 2 3 1029.2 1029.2 0.8
30/12:00am 13.5 13.0 12.6 94 0.5 ENE 7 9 4 5 1029.3 1029.3 0.4
 
Date/Time
EST
Temp
°C
App
Temp
°C
Dew
Point
Rel
Hum
%
Delta-T
°C
Wind Press
QNH
hPa
Press
MSL
hPa
Rain
since 9 am
mm
Dir
 
Spd
km/h
Gust
km/h
Spd
kts
Gust
kts
29/11:38pm 13.4 12.9 12.5 94 0.5 ENE 7 9 4 5 1029.4 1029.4 0.4
29/11:30pm 13.4 12.5 12.5 94 0.5 E 9 11 5 6 1029.4 1029.4 0.4
29/11:00pm 13.5 12.3 12.7 95 0.4 E 11 15 6 8 1029.6 1029.6 0.4
29/10:30pm 13.4 12.5 12.5 94 0.5 E 9 9 5 5 1029.6 1029.6 0.4
29/10:00pm 13.5 11.9 12.7 95 0.4 E 13 15 7 8 1029.7 1029.7 0.4
29/09:30pm 13.5 12.2 12.6 94 0.5 ESE 11 13 6 7 1029.7 1029.7 0.4
29/09:00pm 13.6 11.5 12.5 93 0.6 E 15 19 8 10 1029.9 1030.0 0.4
29/08:30pm 13.7 11.7 12.8 94 0.5 ESE 15 19 8 10 1029.9 1030.0 0.4
29/08:00pm 13.7 12.1 12.8 94 0.5 ESE 13 17 7 9 1029.8 1029.8 0.4
29/07:30pm 13.8 12.2 12.7 93 0.6 ESE 13 17 7 9 1029.7 1029.7 0.0
29/07:00pm 14.1 11.0 12.3 89 1.0 E 20 24 11 13 1029.6 1029.6 0.0
29/06:30pm 14.0 11.5 12.2 89 1.0 E 17 20 9 11 1029.2 1029.2 0.0
29/06:00pm 13.8 10.6 12.0 89 1.0 E 20 22 11 12 1028.8 1028.8 0.0
29/05:30pm 14.1 10.1 11.8 86 1.3 ESE 24 32 13 17 1028.6 1028.6 0.0
29/05:00pm 14.7 10.7 11.8 83 1.6 ESE 24 32 13 17 1028.1 1028.2 0.0
29/04:30pm 14.9 10.2 12.0 83 1.6 SE 28 33 15 18 1028.0 1028.1 0.0
29/04:13pm 15.8 11.7 12.7 82 1.7 E 26 32 14 17 1028.0 1028.1 0.0
29/04:00pm 16.2 12.0 12.4 78 2.1 E 26 33 14 18 1027.8 1027.9 0.0
29/03:30pm 16.2 11.3 12.6 79 2.0 E 30 37 16 20 1027.8 1027.9 0.0
29/03:00pm 17.7 13.1 12.4 71 3.0 E 28 37 15 20 1027.8 1027.9 0.0
29/02:30pm 17.6 13.5 12.7 73 2.8 E 26 32 14 17 1028.1 1028.2 0.0
29/02:00pm 17.8 13.3 12.5 71 3.0 ESE 28 33 15 18 1028.6 1028.6 0.0
29/01:30pm 17.3 13.1 12.4 73 2.8 E 26 33 14 18 1029.1 1029.1 0.0
29/01:00pm 17.3 12.7 12.2 72 2.8 E 28 35 15 19 1029.2 1029.2 0.0
29/12:30pm 17.5 12.4 12.0 70 3.1 E 30 37 16 20 1029.5 1029.5 0.0
29/12:00pm 17.3 12.2 11.8 70 3.0 ENE 30 35 16 19 1030.0 1030.1 0.0
29/11:30am 17.5 12.9 12.2 71 3.0 ENE 28 35 15 19 1030.3 1030.4 0.0
29/11:00am 18.3 12.8 12.5 69 3.3 ENE 33 43 18 23 1030.4 1030.5 0.0
29/10:30am 17.4 11.9 11.9 70 3.1 E 32 39 17 21 1031.0 1031.1 0.0
29/10:00am 17.0 10.8 11.5 70 3.0 E 35 43 19 23 1031.6 1031.6 0.0
29/09:49am 17.4 11.8 12.1 71 3.0 E 33 44 18 24 1031.5 1031.5 0.0
29/09:30am 16.5 11.8 12.1 75 2.5 E 28 35 15 19 1031.4 1031.4 0.0
29/09:03am 17.1 13.1 13.0 77 2.3 E 26 33 14 18 1031.3 1031.3 0.0
29/09:00am 16.8 12.6 12.5 76 2.4 E 26 33 14 18 1031.3 1031.3 0.0
29/08:30am 16.0 12.7 12.7 81 1.9 ENE 22 30 12 16 1030.9 1031.0 0.0
29/08:00am 15.2 12.5 12.9 86 1.3 ENE 19 24 10 13 1030.8 1030.9 0.0
29/07:30am 14.2 11.3 12.8 91 0.8 ENE 20 30 11 16 1030.5 1030.6 0.0
29/07:00am 12.3 10.7 11.4 94 0.5 ENE 11 13 6 7 1030.2 1030.3 0.0
29/06:30am 12.6 10.3 11.7 94 0.5 ENE 15 17 8 9 1030.1 1030.2 0.0
29/06:00am 12.6 9.8 11.3 92 0.7 ENE 17 19 9 10 1029.9 1030.0 0.0
29/05:30am 12.8 9.5 11.7 93 0.6 ENE 20 22 11 12 1029.6 1029.6 0.0
29/05:00am 13.2 10.9 11.9 92 0.7 ENE 15 17 8 9 1029.4 1029.4 0.0
29/04:30am 13.0 10.7 11.7 92 0.7 E 15 20 8 11 1029.0 1029.0 0.0
29/04:00am 12.3 10.2 11.0 92 0.7 E 13 17 7 9 1029.1 1029.1 0.0
29/03:30am 12.8 10.9 11.7 93 0.6 ESE 13 17 7 9 1029.3 1029.3 0.0
29/03:00am 13.3 10.4 12.2 93 0.6 ESE 19 24 10 13 1029.4 1029.4 0.0
29/02:32am 12.6 10.7 11.7 94 0.5 E 13 17 7 9 1029.5 1029.5 0.0
29/02:30am 12.6 10.6 11.5 93 0.6 E 13 17 7 9 1029.5 1029.5 0.0
29/02:00am 13.1 12.3 12.9 99 0.1 ENE 9 13 5 7 1029.7 1029.7 0.0
29/01:30am 12.4 11.7 12.1 98 0.2 ENE 7 9 4 5 1029.8 1029.8 0.0
29/01:22am 10.7 9.4 9.9 95 0.4 ENE 7 7 4 4 1029.9 1030.0 0.0
29/01:16am 9.7 8.0 8.5 92 0.6 ENE 7 9 4 5 1029.9 1030.0 0.0
29/01:00am 9.9 7.5 8.5 91 0.7 ENE 11 11 6 6 1029.9 1030.0 0.0
29/12:30am 12.3 11.5 11.7 96 0.3 ESE 7 9 4 5 1030.0 1030.1 0.0
29/12:00am 12.0 12.4 11.2 95 0.4 CALM 0 0 0 0 1030.3 1030.4 0.0
 
Date/Time
EST
Temp
°C
App
Temp
°C
Dew
Point
Rel
Hum
%
Delta-T
°C
Wind Press
QNH
hPa
Press
MSL
hPa
Rain
since 9 am
mm
Dir
 
Spd
km/h
Gust
km/h
Spd
kts
Gust
kts
28/11:30pm 11.6 10.5 10.5 93 0.6 ESE 7 9 4 5 1030.6 1030.7 0.0
28/11:00pm 11.4 9.4 10.0 91 0.7 NNE 11 13 6 7 1030.7 1030.8 0.0
28/10:30pm 11.8 9.8 10.0 89 0.9 ENE 11 13 6 7 1030.7 1030.8 0.0
28/10:00pm 12.8 9.9 11.0 89 1.0 ENE 17 19 9 10 1030.7 1030.8 0.0
28/09:30pm 13.0 10.9 11.1 88 1.0 NE 13 17 7 9 1030.6 1030.7 0.0
28/09:00pm 12.9 10.8 11.0 88 1.0 ENE 13 13 7 7 1030.7 1030.8 0.0
28/08:30pm 13.3 11.4 10.5 83 1.5 ENE 11 13 6 7 1030.6 1030.7 0.0
28/08:00pm 15.1 14.4 12.1 82 1.7 ENE 7 9 4 5 1030.6 1030.7 0.0
28/07:30pm 14.8 13.6 11.6 81 1.8 ENE 9 11 5 6 1030.3 1030.4 0.0
28/07:00pm 14.9 12.8 11.3 79 1.9 NE 13 13 7 7 1030.0 1030.1 0.0
28/06:30pm 15.7 14.1 11.7 77 2.2 ENE 11 13 6 7 1029.7 1029.7 0.0
28/06:00pm 15.3 13.1 10.7 74 2.5 ENE 13 15 7 8 1029.2 1029.2 0.0
28/05:30pm 16.3 14.0 10.4 68 3.2 ENE 13 15 7 8 1028.7 1028.7 0.0
28/05:00pm 18.2 15.9 10.6 61 4.1 ENE 13 17 7 9 1028.6 1028.6 0.0
28/04:30pm 19.9 16.7 10.0 53 5.4 ENE 17 22 9 12 1028.3 1028.4 0.0
28/04:00pm 19.4 16.7 10.4 56 4.9 ENE 15 22 8 12 1028.3 1028.4 0.0
28/03:30pm 20.8 17.2 10.0 50 5.9 E 19 24 10 13 1028.1 1028.2 0.0
28/03:00pm 21.3 18.5 9.9 48 6.2 E 15 22 8 12 1028.1 1028.2 0.0
28/02:30pm 21.2 18.0 9.8 48 6.3 ESE 17 32 9 17 1028.1 1028.2 0.0
28/02:00pm 21.0 18.0 10.5 51 5.8 ENE 17 26 9 14 1028.3 1028.4 0.0
28/01:30pm 20.7 17.5 11.1 54 5.4 E 19 26 10 14 1028.7 1028.7 0.0
28/01:00pm 21.0 18.2 11.3 54 5.4 SE 17 26 9 14 1029.2 1029.2 0.0
28/12:30pm 20.2 17.0 11.4 57 4.9 ESE 19 26 10 14 1029.6 1029.6 0.0
28/12:00pm 20.2 17.3 12.4 61 4.4 ESE 19 26 10 14 1029.9 1030.0 0.0
28/11:30am 19.3 16.9 12.6 65 3.8 E 17 24 9 13 1030.5 1030.6 0.0
28/11:00am 18.6 15.6 12.6 68 3.4 E 20 26 11 14 1031.0 1031.1 0.0
28/10:30am 17.5 14.5 12.6 73 2.8 ESE 20 26 11 14 1031.4 1031.4 0.0
28/10:05am 16.8 14.0 12.7 77 2.3 ESE 19 24 10 13 1031.6 1031.6 0.0
28/10:00am 16.4 13.6 12.6 78 2.1 ESE 19 24 10 13 1031.7 1031.7 0.0
28/09:30am 16.7 14.6 13.6 82 1.8 ESE 17 20 9 11 1031.7 1031.7 0.0
28/09:24am 15.9 13.6 13.0 83 1.6 ESE 17 20 9 11 1031.7 1031.7 0.0
28/09:00am 15.3 12.9 12.8 85 1.4 ESE 17 20 9 11 1031.7 1031.7 0.0
28/08:30am 15.1 13.2 13.1 88 1.1 ESE 15 19 8 10 1031.3 1031.3 0.0
28/08:28am 15.3 13.6 13.5 89 1.0 ESE 15 19 8 10 1031.2 1031.2 0.0
28/08:06am 14.8 14.6 14.6 99 0.1 SE 9 13 5 7 1031.2 1031.2 0.0
28/08:00am 14.0 14.1 13.8 99 0.1 E 6 9 3 5 1031.2 1031.2 0.0
28/07:30am 13.2 13.8 13.0 99 0.1 NNE 2 6 1 3 1031.0 1031.1 0.0
28/07:26am 12.8 13.2 12.6 99 0.1 NE 2 6 1 3 1031.0 1031.1 0.0
28/07:06am 11.4 11.8 11.1 98 0.2 CALM 0 0 0 0 1030.7 1030.8 0.0
28/07:04am 11.3 11.6 11.0 98 0.2 CALM 0 0 0 0 1030.7 1030.8 0.0
28/07:00am 10.9 11.1 10.4 97 0.3 CALM 0 0 0 0 1030.7 1030.8 0.0
28/06:30am 10.6 10.0 10.3 98 0.2 NE 4 7 2 4 1030.4 1030.5 0.0
28/06:00am 11.0 10.1 10.7 98 0.2 NE 6 9 3 5 1030.0 1030.1 0.0
28/05:52am 11.1 10.0 10.8 98 0.2 SE 7 11 4 6 1029.9 1030.0 0.0
28/05:30am 10.7 9.5 10.4 98 0.2 SSE 7 9 4 5 1029.9 1030.0 0.0
28/05:15am 11.2 10.7 10.9 98 0.2 S 4 9 2 5 1029.9 1030.0 0.0
28/05:00am 10.3 9.6 10.0 98 0.2 WNW 4 7 2 4 1029.9 1030.0 0.0
28/04:30am 9.9 8.0 9.1 95 0.4 ENE 9 13 5 7 1029.6 1029.6 0.0
28/04:21am 9.7 8.7 8.8 94 0.5 NNE 4 7 2 4 1029.6 1029.6 0.0
28/04:00am 9.7 7.8 8.9 95 0.4 ESE 9 15 5 8 1029.6 1029.6 0.0
28/03:30am 10.3 8.2 9.8 97 0.3 ESE 11 13 6 7 1029.8 1029.8 0.0
28/03:00am 9.5 7.9 8.6 94 0.4 ESE 7 11 4 6 1029.9 1030.0 0.0
28/02:30am 9.8 8.2 8.7 93 0.6 SE 7 9 4 5 1030.0 1030.1 0.0
28/02:00am 10.4 9.0 9.5 94 0.5 S 7 9 4 5 1030.1 1030.2 0.0
28/01:30am 10.7 10.7 9.8 94 0.5 CALM 0 6 0 3 1030.3 1030.4 0.0
28/01:00am 10.2 9.3 9.1 93 0.6 E 4 6 2 3 1030.4 1030.5 0.0
28/12:30am 11.1 10.4 10.2 94 0.5 ENE 4 6 2 3 1030.3 1030.4 0.0
28/12:00am 11.3 10.2 9.9 91 0.7 ESE 6 7 3 4 1030.5 1030.6 0.0
 
Date/Time
EST
Temp
°C
App
Temp
°C
Dew
Point
Rel
Hum
%
Delta-T
°C
Wind Press
QNH
hPa
Press
MSL
hPa
Rain
since 9 am
mm
Dir
 
Spd
km/h
Gust
km/h
Spd
kts
Gust
kts
27/11:30pm 11.3 10.1 9.6 89 0.9 ENE 6 7 3 4 1030.4 1030.5 0.0
27/11:00pm 11.9 10.8 10.1 89 0.9 E 6 9 3 5 1030.6 1030.7 0.0
27/10:30pm 11.8 11.7 9.5 86 1.2 CALM 0 6 0 3 1030.6 1030.7 0.0
27/10:00pm 13.1 11.1 10.3 83 1.5 ESE 11 17 6 9 1030.7 1030.8 0.0
27/09:30pm 13.8 10.3 11.0 83 1.5 E 20 24 11 13 1030.8 1030.9 0.0
27/09:00pm 13.9 10.4 10.9 82 1.6 E 20 24 11 13 1030.7 1030.8 0.0
27/08:30pm 15.0 11.6 11.2 78 2.1 E 20 26 11 14 1030.7 1030.8 0.0
27/08:00pm 15.8 12.5 11.6 76 2.3 E 20 24 11 13 1030.6 1030.7 0.0
27/07:30pm 15.9 12.6 11.5 75 2.4 ENE 20 24 11 13 1030.3 1030.4 0.0
27/07:00pm 15.8 13.1 11.8 77 2.2 ENE 17 22 9 12 1030.1 1030.2 0.0
27/06:30pm 15.2 12.4 11.4 78 2.1 ENE 17 19 9 10 1029.9 1030.0 0.0

Other Formats:

Comma delimited format used in spreadsheet applications
http://www.bom.gov.au/fwo/IDQ60801/IDQ60801.94552.axf

JavaScript Object Notation format (JSON) in row-major order
http://www.bom.gov.au/fwo/IDQ60801/IDQ60801.94552.json